Time;durP1;ratioP1;P1;durP2;ratioP2;P2;SDS_P1;SDS_P2;PMS_P1;PMS_P2;Temp;Humidity;BMP_temperature;BMP_pressure;BME280_temperature;BME280_humidity;BME280_pressure;Samples;Min_cycle;Max_cycle;Signal;HPM_P1;HPM_P2
2021/12/10 15:11:47;;;;;;;24.82;17.23;;;;;;;8.12;83.67;98908.61;1806802;78;22838;-39
2021/12/10 15:14:28;;;;;;;23.22;16.30;;;;;;;8.12;83.67;98897.02;1779078;80;21623;-39
2021/12/10 15:17:06;;;;;;;23.47;16.23;;;;;;;8.03;82.82;98901.28;1779073;80;23131;-39
2021/12/10 15:19:38;;;;;;;23.92;16.67;;;;;;;8.03;82.67;98898.58;1779152;80;20966;-40
2021/12/10 15:22:07;;;;;;;19.15;11.30;;;;;;;7.99;81.96;98909.84;1779619;80;20966;-40
2021/12/10 15:24:48;;;;;;;26.17;15.83;;;;;;;8.01;82.08;98912.98;1779126;80;20970;-39
2021/12/10 15:27:27;;;;;;;23.00;15.28;;;;;;;8.02;81.92;98901.63;1779342;80;21017;-39
2021/12/10 15:30:17;;;;;;;24.02;15.25;;;;;;;7.99;82.01;98911.20;1779204;80;21149;-39
2021/12/10 15:32:50;;;;;;;25.75;15.00;;;;;;;7.98;82.08;98910.22;1779278;80;20971;-39
2021/12/10 15:35:31;;;;;;;23.67;15.53;;;;;;;8.03;81.93;98905.89;1777817;80;20974;-40
2021/12/10 15:38:12;;;;;;;22.42;15.23;;;;;;;8.02;81.81;98908.38;1778267;80;21539;-40
2021/12/10 15:41:00;;;;;;;21.15;14.85;;;;;;;8.02;81.81;98917.83;1779186;80;20939;-41
2021/12/10 15:43:32;;;;;;;22.70;16.17;;;;;;;8.04;81.79;98908.22;1779288;80;21150;-40
2021/12/10 15:46:03;;;;;;;23.42;14.83;;;;;;;8.04;81.64;98904.17;1778979;80;20923;-40
2021/12/10 15:48:31;;;;;;;23.00;15.28;;;;;;;8.04;81.53;98907.44;1779146;80;21872;-40
2021/12/10 15:51:01;;;;;;;22.10;15.15;;;;;;;8.07;81.40;98910.23;1779013;80;21022;-40
2021/12/10 15:53:36;;;;;;;20.17;14.53;;;;;;;8.08;81.28;98911.80;1779569;80;21042;-40
2021/12/10 15:56:23;;;;;;;18.27;14.15;;;;;;;8.08;81.26;98909.11;1778151;80;21172;-40
2021/12/10 15:58:50;;;;;;;20.37;14.30;;;;;;;8.11;81.06;98918.41;1768350;80;21021;-40
2021/12/10 16:01:25;;;;;;;19.57;13.85;;;;;;;8.14;80.89;98910.37;1757949;80;21021;-40
2021/12/10 16:04:04;;;;;;;17.30;12.33;;;;;;;8.16;80.82;98918.91;1751590;81;20953;-40
2021/12/10 16:06:30;;;;;;;17.07;12.68;;;;;;;8.16;80.78;98898.66;1751618;81;21056;-40
2021/12/10 16:09:01;;;;;;;17.80;13.10;;;;;;;8.22;80.42;98909.41;1752897;81;21184;-40
2021/12/10 16:11:26;;;;;;;18.23;13.50;;;;;;;8.26;80.22;98903.50;1743719;81;21009;-40
2021/12/10 16:13:53;;;;;;;15.75;11.73;;;;;;;8.25;80.10;98911.95;1742398;81;20961;-40
2021/12/10 16:16:24;;;;;;;17.20;12.63;;;;;;;8.25;80.03;98914.08;1742144;81;20958;-40
2021/12/10 16:18:52;;;;;;;19.32;13.60;;;;;;;8.28;79.79;98901.21;1742336;82;21009;-40
2021/12/10 16:21:48;;;;;;;17.17;13.03;;;;;;;8.28;79.75;98907.97;1741987;82;21121;-40
2021/12/10 16:24:24;;;;;;;17.65;12.58;;;;;;;8.28;79.64;98906.61;1741416;82;21005;-40
2021/12/10 16:26:59;;;;;;;16.93;12.53;;;;;;;8.29;79.54;98917.66;1741152;81;21045;-40
2021/12/10 16:29:28;;;;;;;17.57;12.37;;;;;;;8.34;79.37;98919.86;1741336;81;20973;-40
2021/12/10 16:32:03;;;;;;;17.07;12.28;;;;;;;8.33;79.21;98926.43;1741825;82;21315;-40
2021/12/10 16:34:30;;;;;;;19.17;12.55;;;;;;;8.33;79.22;98929.13;1741390;81;21076;-40
2021/12/10 16:37:01;;;;;;;15.53;12.37;;;;;;;8.37;79.13;98929.41;1741520;82;20923;-40
2021/12/10 16:39:31;;;;;;;17.32;12.68;;;;;;;8.38;78.85;98925.55;1741867;82;20922;-40
2021/12/10 16:41:58;;;;;;;17.07;12.58;;;;;;;8.37;78.82;98943.48;1741598;82;21021;-40
2021/12/10 16:44:25;;;;;;;16.40;12.40;;;;;;;8.37;78.76;98938.08;1741855;82;20961;-40
2021/12/10 16:46:56;;;;;;;19.30;14.23;;;;;;;8.38;78.70;98934.22;1741575;82;21153;-40
2021/12/10 16:49:26;;;;;;;19.42;13.32;;;;;;;8.39;78.60;98941.19;1741648;81;21802;-40
2021/12/10 16:51:55;;;;;;;;;;;;;;;8.39;78.50;98947.95;1744342;82;21017;-40
2021/12/10 16:54:35;;;;;;;24.43;13.38;;;;;;;8.41;78.41;98937.58;1742033;82;20185;-40
2021/12/10 16:57:03;;;;;;;20.50;13.72;;;;;;;8.34;78.59;98938.77;1741233;81;21061;-40
2021/12/10 16:59:30;;;;;;;19.12;13.43;;;;;;;8.33;78.41;98935.28;1741752;81;21080;-40
2021/12/10 17:02:05;;;;;;;18.12;12.45;;;;;;;8.34;78.39;98915.81;1741564;82;20949;-40
2021/12/10 17:04:34;;;;;;;17.60;13.53;;;;;;;8.39;78.19;98922.28;1741920;81;20973;-40
2021/12/10 17:07:08;;;;;;;19.53;13.00;;;;;;;8.38;78.07;98917.45;1741887;82;20969;-40
2021/12/10 17:09:39;;;;;;;21.45;14.05;;;;;;;8.38;78.07;98927.47;1741690;81;21022;-40
2021/12/10 17:12:10;;;;;;;17.05;13.28;;;;;;;8.36;77.91;98916.25;1741656;82;21105;-40
2021/12/10 17:14:46;;;;;;;20.77;14.40;;;;;;;8.36;77.89;98923.00;1741792;81;20953;-40
2021/12/10 17:17:20;;;;;;;15.93;13.00;;;;;;;8.28;77.96;98916.06;1741307;81;21773;-40
2021/12/10 17:19:54;;;;;;;21.85;14.25;;;;;;;8.28;78.06;98922.81;1741723;81;21570;-40
2021/12/10 17:22:25;;;;;;;17.87;13.08;;;;;;;8.32;77.96;98920.23;1741461;81;21069;-40
2021/12/10 17:24:56;;;;;;;18.45;13.95;;;;;;;8.33;77.83;98923.73;1741781;81;21166;-40
2021/12/10 17:27:27;;;;;;;19.37;13.70;;;;;;;8.29;77.79;98923.06;1741405;82;21519;-40
2021/12/10 17:29:59;;;;;;;16.55;12.37;;;;;;;8.28;77.79;98924.17;1741405;81;20977;-40
2021/12/10 17:32:28;;;;;;;18.73;14.15;;;;;;;8.31;77.71;98913.83;1740705;81;21665;-40
2021/12/10 17:35:05;;;;;;;16.60;13.45;;;;;;;8.27;77.64;98921.84;1741969;82;21037;-40
2021/12/10 17:37:33;;;;;;;18.60;12.82;;;;;;;8.26;77.70;98913.52;1741483;81;21807;-40
2021/12/10 17:40:21;;;;;;;18.67;12.73;;;;;;;8.25;77.65;98923.53;1741705;82;21041;-40
2021/12/10 17:42:52;;;;;;;18.07;13.58;;;;;;;8.27;77.54;98905.64;1740828;81;21018;-40
2021/12/10 17:45:24;;;;;;;17.07;12.80;;;;;;;8.23;77.58;98906.89;1741481;82;20973;-40
2021/12/10 17:47:52;;;;;;;18.95;12.88;;;;;;;8.21;77.54;98914.58;1741584;82;21029;-40
2021/12/10 17:50:25;;;;;;;16.07;12.63;;;;;;;8.24;77.51;98904.41;1741676;82;21081;-40
2021/12/10 17:52:53;;;;;;;15.53;11.88;;;;;;;8.24;77.45;98905.77;1741423;81;21502;-40
2021/12/10 17:55:25;;;;;;;14.98;11.93;;;;;;;8.20;77.43;98904.91;1741635;82;21024;-40
2021/12/10 17:57:57;;;;;;;16.67;11.05;;;;;;;8.22;77.44;98906.70;1741475;82;21494;-40
2021/12/10 18:00:32;;;;;;;16.15;11.28;;;;;;;8.26;77.28;98903.50;1741893;81;21025;-40
2021/12/10 18:03:04;;;;;;;17.67;11.45;;;;;;;8.21;77.27;98905.13;1741459;82;21799;-40
2021/12/10 18:05:32;;;;;;;16.07;10.88;;;;;;;8.24;77.40;98905.77;1741872;82;21008;-40
2021/12/10 18:08:03;;;;;;;16.40;11.05;;;;;;;8.25;77.41;98911.38;1741581;82;20914;-40
2021/12/10 18:10:31;;;;;;;18.37;12.35;;;;;;;8.27;77.31;98909.69;1744938;81;21020;-40
2021/12/10 18:12:58;;;;;;;15.80;10.32;;;;;;;8.24;77.27;98907.67;1757425;81;21491;-40
2021/12/10 18:15:36;;;;;;;12.85;10.32;;;;;;;8.23;77.29;98905.54;1757368;81;21484;-40
2021/12/10 18:18:10;;;;;;;15.32;11.28;;;;;;;8.27;77.11;98899.67;1757196;81;20961;-40
2021/12/10 18:20:46;;;;;;;13.90;10.03;;;;;;;8.28;76.97;98901.77;1757904;81;21313;-40
2021/12/10 18:23:23;;;;;;;13.72;9.38;;;;;;;8.31;76.91;98912.48;1756705;81;21032;-40
2021/12/10 18:26:01;;;;;;;16.25;11.65;;;;;;;8.34;76.81;98888.24;1757300;81;21025;-40
2021/12/10 18:28:31;;;;;;;13.22;9.50;;;;;;;8.33;76.71;98888.62;1757499;81;21088;-40
2021/12/10 18:31:03;;;;;;;13.10;9.60;;;;;;;8.34;76.73;98890.16;1757742;81;21010;-40
2021/12/10 18:33:33;;;;;;;13.45;9.63;;;;;;;8.37;76.50;98886.77;1757388;81;20996;-40
2021/12/10 18:36:00;;;;;;;11.53;8.83;;;;;;;8.41;76.31;98893.80;1738836;81;21049;-40
2021/12/10 18:38:28;;;;;;;13.45;9.75;;;;;;;8.42;76.26;98878.38;1757600;81;21565;-40
2021/12/10 18:41:03;;;;;;;15.85;9.90;;;;;;;8.42;76.18;98891.88;1757486;81;21876;-40
2021/12/10 18:43:33;;;;;;;12.03;8.98;;;;;;;8.51;75.93;98890.53;1757537;81;21016;-40
2021/12/10 18:46:04;;;;;;;13.40;8.87;;;;;;;8.51;75.95;98889.74;1758001;81;20972;-40
2021/12/10 18:48:33;;;;;;;12.78;9.40;;;;;;;8.52;75.95;98877.20;1756775;81;21706;-40
2021/12/10 18:51:15;;;;;;;12.10;8.98;;;;;;;8.53;75.94;98879.34;1757354;81;20992;-40
2021/12/10 18:53:50;;;;;;;14.23;9.53;;;;;;;8.54;75.89;98901.17;1757293;81;22003;-40
2021/12/10 18:56:31;;;;;;;12.30;8.75;;;;;;;8.51;75.91;98888.39;1755628;81;21075;-40
2021/12/10 18:58:59;;;;;;;14.53;9.20;;;;;;;8.56;75.88;98889.45;1755938;81;21002;-40
2021/12/10 19:01:34;;;;;;;14.98;10.18;;;;;;;8.60;75.60;98906.51;1757569;80;20994;-40
2021/12/10 19:04:12;;;;;;;15.25;9.45;;;;;;;8.59;75.59;98888.16;1756721;81;21033;-40
2021/12/10 19:06:40;;;;;;;12.00;8.48;;;;;;;8.61;75.58;98896.70;1757182;81;21718;-40
2021/12/10 19:09:11;;;;;;;16.02;9.75;;;;;;;8.63;75.36;98898.46;1756735;81;20925;-40
2021/12/10 19:11:40;;;;;;;12.95;9.00;;;;;;;8.68;75.28;98896.83;1749209;81;21040;-40
2021/12/10 19:14:26;;;;;;;12.75;9.15;;;;;;;8.68;75.33;98890.63;1741964;82;20996;-40
2021/12/10 19:17:01;;;;;;;13.55;9.00;;;;;;;8.67;75.23;98902.58;1742092;82;21031;-40
2021/12/10 19:19:33;;;;;;;13.05;9.68;;;;;;;8.72;75.17;98898.23;1740616;82;21126;-40
2021/12/10 19:22:07;;;;;;;14.90;9.88;;;;;;;8.72;75.12;98888.20;1742190;82;21386;-40
2021/12/10 19:24:42;;;;;;;13.15;9.28;;;;;;;8.69;75.11;98893.55;1741966;82;21585;-40
2021/12/10 19:27:17;;;;;;;12.25;8.45;;;;;;;8.66;75.20;98896.42;1742060;82;20984;-40
2021/12/10 19:29:46;;;;;;;15.70;9.68;;;;;;;8.72;75.17;98904.98;1742163;82;21345;-40
2021/12/10 19:32:32;;;;;;;14.58;10.53;;;;;;;8.75;75.17;98896.19;1742163;82;21088;-40
2021/12/10 19:35:13;;;;;;;13.60;9.83;;;;;;;8.74;75.05;98887.86;1741971;82;21087;-40
2021/12/10 19:37:45;;;;;;;11.83;9.08;;;;;;;8.71;75.05;98894.74;1741930;82;20951;-40
2021/12/10 19:40:23;;;;;;;13.20;10.03;;;;;;;8.71;75.17;98885.88;1741781;82;21547;-40
2021/12/10 19:42:55;;;;;;;13.18;9.55;;;;;;;8.69;75.11;98895.69;1742431;82;20944;-40
2021/12/10 19:45:30;;;;;;;13.45;9.65;;;;;;;8.66;75.25;98901.04;1742071;82;21518;-40
2021/12/10 19:48:05;;;;;;;12.53;9.28;;;;;;;8.67;75.29;98905.28;1741753;82;21060;-40
2021/12/10 19:50:43;;;;;;;13.08;9.45;;;;;;;8.71;75.19;98898.05;1741971;82;21221;-40
2021/12/10 19:53:17;;;;;;;13.70;9.40;;;;;;;8.68;75.21;98898.17;1719567;82;21000;-40
2021/12/10 19:55:55;;;;;;;11.22;8.70;;;;;;;8.71;75.18;98903.45;1741870;82;21391;-40
2021/12/10 19:58:28;;;;;;;14.85;9.48;;;;;;;8.71;75.18;98908.86;1741399;82;21197;-40
2021/12/10 20:01:08;;;;;;;15.03;10.30;;;;;;;8.69;75.21;98902.45;1760294;81;20896;-40
2021/12/10 20:03:42;;;;;;;12.43;8.85;;;;;;;8.67;75.28;98900.66;1770044;81;20959;-40
2021/12/10 20:06:14;;;;;;;12.15;8.50;;;;;;;8.66;75.33;98907.23;1769492;81;21023;-40
2021/12/10 20:08:48;;;;;;;12.73;9.93;;;;;;;8.72;75.33;98903.64;1770330;81;21078;-40
2021/12/10 20:11:21;;;;;;;11.93;9.55;;;;;;;8.71;75.25;98904.80;1771719;80;21755;-40
2021/12/10 20:14:08;;;;;;;12.78;9.05;;;;;;;8.68;75.30;98901.44;1775787;80;20979;-40
2021/12/10 20:16:44;;;;;;;13.88;9.10;;;;;;;8.68;75.37;98908.20;1775605;80;21048;-40
2021/12/10 20:19:18;;;;;;;13.60;9.08;;;;;;;8.71;75.32;98899.39;1775788;80;20927;-40
2021/12/10 20:22:08;;;;;;;13.78;9.73;;;;;;;8.69;75.26;98898.39;1775767;80;21538;-40
2021/12/10 20:24:39;;;;;;;14.90;9.60;;;;;;;8.67;75.28;98891.20;1775912;80;21097;-40
2021/12/10 20:27:23;;;;;;;13.83;10.08;;;;;;;8.67;75.34;98901.22;1775681;80;21063;-40
2021/12/10 20:29:59;;;;;;;12.03;9.93;;;;;;;8.70;75.20;98902.66;1775775;80;21588;-40
2021/12/10 20:32:33;;;;;;;16.27;9.58;;;;;;;8.67;75.29;98910.12;1775645;80;21011;-41
2021/12/10 20:35:23;;;;;;;13.15;8.83;;;;;;;8.68;75.27;98910.91;1775899;80;21079;-41
2021/12/10 20:38:01;;;;;;;11.43;9.98;;;;;;;8.71;75.21;98915.61;1774890;80;21132;-40
2021/12/10 20:40:35;;;;;;;13.72;10.15;;;;;;;8.71;75.20;98907.50;1775613;80;21536;-40
2021/12/10 20:43:07;;;;;;;14.68;9.75;;;;;;;8.69;75.25;98908.41;1774230;80;21011;-40
2021/12/10 20:45:39;;;;;;;11.10;8.53;;;;;;;8.70;75.16;98912.13;1775835;80;21023;-40
2021/12/10 20:48:10;;;;;;;14.33;9.55;;;;;;;8.74;75.02;98922.99;1775685;80;21065;-40
2021/12/10 20:50:49;;;;;;;;;;;;;;;8.79;75.00;98915.95;1778473;80;21065;-41
2021/12/10 20:53:31;;;;;;;13.68;9.63;;;;;;;8.81;75.07;98918.30;1775378;80;20287;-40
2021/12/10 20:56:01;;;;;;;13.28;9.08;;;;;;;8.69;75.36;98925.42;1775740;80;21015;-40
2021/12/10 20:58:31;;;;;;;;;;;;;;;8.73;75.29;98916.80;1778543;80;21490;-40
2021/12/10 21:01:09;;;;;;;;;;;;;;;8.78;75.17;98917.08;1752262;80;20133;-40
2021/12/10 21:03:55;;;;;;;13.60;8.85;;;;;;;8.67;75.48;98923.63;1737276;82;21125;-40
2021/12/10 21:06:27;;;;;;;12.82;9.15;;;;;;;8.59;75.77;98915.75;1737335;82;21044;-40
2021/12/10 21:08:58;;;;;;;14.95;9.23;;;;;;;8.64;75.68;98923.00;1736991;82;21080;-40
2021/12/10 21:11:33;;;;;;;17.27;10.10;;;;;;;8.69;75.55;98915.95;1735221;82;21001;-41
2021/12/10 21:14:11;;;;;;;11.20;8.93;;;;;;;8.69;75.52;98930.82;1716734;83;21032;-40
2021/12/10 21:16:45;;;;;;;14.78;8.68;;;;;;;8.71;75.43;98933.93;1781973;79;21126;-40
2021/12/10 21:19:16;;;;;;;12.50;8.63;;;;;;;8.76;75.33;98928.84;1782718;80;21586;-40
2021/12/10 21:21:54;;;;;;;10.72;8.35;;;;;;;8.81;75.24;98933.92;1782893;80;21004;-40
2021/12/10 21:24:28;;;;;;;13.45;8.43;;;;;;;8.80;75.12;98940.49;1782745;79;21068;-40
2021/12/10 21:27:12;;;;;;;14.63;9.33;;;;;;;8.81;75.08;98931.81;1782892;79;21076;-40
2021/12/10 21:29:53;;;;;;;13.58;8.55;;;;;;;8.85;75.01;98936.14;1782899;80;21118;-40
2021/12/10 21:32:28;;;;;;;11.85;9.23;;;;;;;8.91;74.85;98937.39;1782719;80;21021;-40
2021/12/10 21:35:31;;;;;;;12.28;8.85;;;;;;;8.92;74.81;98941.67;1783067;80;20957;-40
2021/12/10 21:38:10;;;;;;;12.20;7.90;;;;;;;8.91;74.70;98934.69;1782689;80;20982;-40
2021/12/10 21:40:56;;;;;;;11.40;7.50;;;;;;;8.95;74.58;98939.63;1781452;80;21017;-40
2021/12/10 21:43:40;;;;;;;10.78;7.90;;;;;;;8.97;74.53;98949.48;1751581;80;21063;-40
2021/12/10 21:46:15;;;;;;;12.93;8.83;;;;;;;8.98;74.53;98941.59;1782913;80;20942;-40
2021/12/10 21:48:46;;;;;;;11.15;8.13;;;;;;;8.97;74.74;98947.35;1782808;79;21013;-40
2021/12/10 21:51:21;;;;;;;13.55;8.05;;;;;;;8.96;75.00;98958.73;1782622;80;21338;-40
2021/12/10 21:53:48;;;;;;;12.13;8.53;;;;;;;9.02;75.09;98957.87;1782781;80;21024;-40
2021/12/10 21:56:23;;;;;;;12.93;9.15;;;;;;;8.99;75.13;98956.69;1782694;80;21122;-40
2021/12/10 21:59:01;;;;;;;12.93;7.70;;;;;;;8.95;75.26;98959.89;1782730;80;21025;-40
2021/12/10 22:01:35;;;;;;;10.78;7.33;;;;;;;8.93;75.42;98956.75;1782198;80;21506;-40
2021/12/10 22:04:04;;;;;;;14.47;8.10;;;;;;;8.97;75.60;98958.95;1782421;80;21310;-40
2021/12/10 22:06:37;;;;;;;10.65;6.20;;;;;;;8.98;75.68;98951.06;1783148;79;21230;-40
2021/12/10 22:09:15;;;;;;;9.48;6.85;;;;;;;8.96;75.90;98957.37;1782324;80;21134;-41
2021/12/10 22:11:50;;;;;;;10.60;6.70;;;;;;;8.99;75.95;98938.33;1783581;80;21135;-41
2021/12/10 22:14:22;;;;;;;11.88;7.83;;;;;;;9.02;76.18;98945.14;1788723;79;21003;-40
2021/12/10 22:16:57;;;;;;;11.97;7.20;;;;;;;9.04;76.30;98946.93;1788737;79;21056;-40
2021/12/10 22:19:31;;;;;;;10.08;7.00;;;;;;;9.01;76.54;98948.98;1788715;80;21028;-40
2021/12/10 22:22:03;;;;;;;11.35;7.15;;;;;;;8.98;76.68;98947.57;1788710;80;21158;-41
2021/12/10 22:24:47;;;;;;;9.15;6.35;;;;;;;8.97;76.78;98945.44;1788436;80;20901;-40
2021/12/10 22:27:25;;;;;;;10.75;7.05;;;;;;;9.00;76.65;98948.00;1788436;79;20949;-40
2021/12/10 22:29:58;;;;;;;10.03;7.00;;;;;;;8.98;76.65;98949.70;1788560;80;20998;-41
2021/12/10 22:32:36;;;;;;;10.38;6.20;;;;;;;8.94;76.66;98961.03;1788316;79;21463;-40
2021/12/10 22:35:20;;;;;;;10.25;6.83;;;;;;;8.95;76.67;98948.30;1788611;79;21110;-41
2021/12/10 22:37:52;;;;;;;9.90;6.53;;;;;;;9.00;76.69;98939.33;1788566;79;20949;-41
2021/12/10 22:40:29;;;;;;;11.08;6.60;;;;;;;9.01;76.86;98952.25;1788682;80;21063;-40
2021/12/10 22:43:07;;;;;;;9.15;5.80;;;;;;;8.99;76.89;98945.87;1788210;79;21052;-40
2021/12/10 22:45:39;;;;;;;9.73;6.42;;;;;;;8.97;77.00;98949.48;1786976;79;21063;-40
2021/12/10 22:48:14;;;;;;;11.12;6.67;;;;;;;9.01;76.90;98957.66;1788821;79;21130;-41
2021/12/10 22:50:55;;;;;;;9.93;6.92;;;;;;;9.02;76.89;98964.06;1788657;79;21488;-40
2021/12/10 22:53:30;;;;;;;8.73;6.53;;;;;;;8.98;76.90;98949.70;1788448;80;21525;-41
2021/12/10 22:55:58;;;;;;;12.60;6.33;;;;;;;8.97;76.91;98963.57;1788809;79;21063;-40
2021/12/10 22:58:29;;;;;;;9.68;6.42;;;;;;;9.01;76.87;98953.03;1788725;79;21013;-41
2021/12/10 23:01:13;;;;;;;10.50;7.00;;;;;;;9.07;76.69;98963.78;1788624;79;21808;-40
2021/12/10 23:03:45;;;;;;;11.25;6.75;;;;;;;9.05;76.42;98961.23;1788584;80;20996;-40
2021/12/10 23:06:14;;;;;;;9.13;6.30;;;;;;;9.02;76.37;98961.36;1788741;80;20965;-40
2021/12/10 23:12:07;;;;;;;10.48;7.22;;;;;;;9.07;76.07;98970.53;1788472;80;20993;-40
2021/12/10 23:14:40;;;;;;;13.10;7.10;;;;;;;9.03;75.97;98980.51;1788492;80;21166;-40
2021/12/10 23:17:15;;;;;;;12.53;7.37;;;;;;;8.99;75.86;98976.17;1788925;79;21056;-40
2021/12/10 23:20:01;;;;;;;11.35;7.80;;;;;;;9.00;75.86;98983.94;1780002;79;20968;-41
2021/12/10 23:22:28;;;;;;;9.40;7.75;;;;;;;9.01;75.78;98986.83;1788511;80;21009;-41
2021/12/10 23:25:02;;;;;;;14.28;8.30;;;;;;;9.00;75.79;98990.70;1788590;80;21021;-41
2021/12/10 23:27:34;;;;;;;12.93;7.85;;;;;;;8.96;75.80;98989.04;1788453;80;21248;-41
2021/12/10 23:30:10;;;;;;;14.45;7.90;;;;;;;8.95;75.72;98985.58;1788082;79;21056;-40
2021/12/10 23:32:51;;;;;;;9.48;7.30;;;;;;;8.98;75.61;98992.18;1788874;79;21295;-41
2021/12/10 23:35:35;;;;;;;13.10;8.78;;;;;;;8.93;75.65;98983.79;1788777;79;21596;-40
2021/12/10 23:38:31;;;;;;;9.98;7.22;;;;;;;8.89;75.64;98978.89;1788764;80;21000;-40
2021/12/10 23:41:06;;;;;;;10.95;7.55;;;;;;;8.92;75.62;98996.30;1788688;79;21217;-40
2021/12/10 23:43:54;;;;;;;10.95;7.80;;;;;;;8.90;75.58;98993.98;1788589;79;20913;-40
2021/12/10 23:46:38;;;;;;;12.60;8.25;;;;;;;8.88;75.49;98992.19;1788693;80;20969;-40
2021/12/10 23:49:25;;;;;;;10.88;6.85;;;;;;;8.87;75.53;98995.23;1789126;80;21096;-40
2021/12/10 23:51:58;;;;;;;9.30;7.20;;;;;;;8.86;75.55;98998.50;1788878;80;21075;-40
2021/12/10 23:54:35;;;;;;;12.18;7.90;;;;;;;8.90;75.47;98999.95;1788974;80;21096;-41
2021/12/10 23:57:05;;;;;;;11.55;8.10;;;;;;;8.89;75.40;98997.81;1788846;79;20961;-40
2021/12/10 23:59:32;;;;;;;12.20;7.75;;;;;;;8.86;75.40;98995.80;1788950;80;21089;-41
